createdAt,value
2018-08-10T00:00:53.590Z,0
2018-08-10T00:01:25.659Z,0
2018-08-10T00:01:57.732Z,0
2018-08-10T00:02:29.827Z,0
2018-08-10T00:03:01.924Z,0
2018-08-10T00:03:34.009Z,0
2018-08-10T00:04:06.094Z,0
2018-08-10T00:05:57.835Z,0
2018-08-10T00:06:29.928Z,0
2018-08-10T00:07:02.025Z,0
2018-08-10T00:07:34.121Z,0
2018-08-10T00:08:06.182Z,0
2018-08-10T00:08:38.225Z,0
2018-08-10T00:09:10.330Z,0
2018-08-10T00:09:42.424Z,0
2018-08-10T00:10:14.501Z,0
2018-08-10T00:10:46.599Z,0
2018-08-10T00:11:18.708Z,0
2018-08-10T00:11:50.796Z,0
2018-08-10T00:12:22.865Z,0
2018-08-10T00:12:54.947Z,0
2018-08-10T00:13:27.029Z,0
2018-08-10T00:13:59.116Z,0
2018-08-10T00:14:31.228Z,0
2018-08-10T00:17:42.338Z,0
2018-08-10T00:18:14.393Z,0
2018-08-10T00:18:46.503Z,0
2018-08-10T00:19:18.603Z,0
2018-08-10T00:19:50.700Z,0
2018-08-10T00:20:22.767Z,0
2018-08-10T00:20:54.861Z,0
2018-08-10T00:21:26.955Z,0
2018-08-10T00:21:59.056Z,0
2018-08-10T00:22:31.165Z,0
2018-08-10T00:23:03.245Z,0
2018-08-10T00:24:54.691Z,0
2018-08-10T00:25:26.785Z,0
2018-08-10T00:25:58.853Z,0
2018-08-10T00:26:30.925Z,0
2018-08-10T00:27:03.004Z,0
2018-08-10T00:27:35.093Z,0
2018-08-10T00:28:07.191Z,0
2018-08-10T00:28:39.276Z,0
2018-08-10T00:29:11.345Z,0
2018-08-10T00:29:43.435Z,0
2018-08-10T00:30:15.531Z,0
2018-08-10T00:30:47.609Z,0
2018-08-10T00:31:19.692Z,0
2018-08-10T00:31:51.786Z,0
2018-08-10T00:32:23.882Z,0
2018-08-10T00:32:55.967Z,0
2018-08-10T00:33:28.068Z,0
2018-08-10T00:35:19.596Z,0
2018-08-10T00:35:51.689Z,0
2018-08-10T00:36:23.776Z,0
2018-08-10T00:36:55.847Z,0
2018-08-10T00:37:27.944Z,0
2018-08-10T00:38:00.024Z,0
2018-08-10T00:38:32.127Z,0
2018-08-10T00:39:04.187Z,0
2018-08-10T00:39:36.278Z,0
2018-08-10T00:40:08.363Z,0
2018-08-10T00:40:40.463Z,0
2018-08-10T00:42:32.141Z,0
2018-08-10T00:43:04.247Z,0
2018-08-10T00:44:55.830Z,0
2018-08-10T00:45:27.924Z,0
2018-08-10T00:47:19.439Z,0
2018-08-10T00:47:51.529Z,0
2018-08-10T00:48:23.615Z,0
2018-08-10T00:48:55.709Z,0
2018-08-10T00:49:27.768Z,0
2018-08-10T00:49:59.863Z,0
2018-08-10T00:50:31.930Z,0
2018-08-10T00:53:43.356Z,0
2018-08-10T00:54:15.447Z,0
2018-08-10T00:54:47.544Z,0
2018-08-10T00:55:19.628Z,0
2018-08-10T00:55:51.720Z,0
2018-08-10T00:56:23.802Z,0
2018-08-10T00:56:55.847Z,0
2018-08-10T00:57:27.929Z,0
2018-08-10T00:59:19.285Z,0
2018-08-10T00:59:51.388Z,0
2018-08-10T01:00:23.446Z,0
2018-08-10T01:00:55.543Z,0
2018-08-10T01:01:27.625Z,0
2018-08-10T01:01:59.728Z,0
2018-08-10T01:02:31.809Z,0
2018-08-10T01:03:03.898Z,0
2018-08-10T01:03:35.985Z,0
2018-08-10T01:04:08.067Z,0
2018-08-10T01:04:40.183Z,0
2018-08-10T01:05:12.281Z,0
2018-08-10T01:05:44.351Z,0
2018-08-10T01:06:16.443Z,0
2018-08-10T01:06:48.514Z,0
2018-08-10T01:07:20.589Z,0
2018-08-10T01:07:52.693Z,0
2018-08-10T01:08:24.770Z,0
2018-08-10T01:08:56.876Z,0
2018-08-10T01:09:28.981Z,0
2018-08-10T01:10:01.073Z,0
2018-08-10T01:10:33.160Z,0
2018-08-10T01:11:05.248Z,0
2018-08-10T01:11:37.354Z,0
2018-08-10T01:12:09.457Z,0
2018-08-10T01:12:41.542Z,0
2018-08-10T01:13:13.694Z,0
2018-08-10T01:13:45.733Z,0
2018-08-10T01:14:17.820Z,0
2018-08-10T01:14:49.903Z,0
2018-08-10T01:15:21.999Z,0
2018-08-10T01:15:54.075Z,0
2018-08-10T01:16:26.184Z,0
2018-08-10T01:16:58.270Z,0
2018-08-10T01:17:30.361Z,0
2018-08-10T01:18:02.429Z,0
2018-08-10T01:18:34.518Z,0
2018-08-10T01:19:06.631Z,0
2018-08-10T01:19:38.708Z,0
2018-08-10T01:21:30.133Z,0
2018-08-10T01:23:21.724Z,0
2018-08-10T01:23:53.837Z,0
2018-08-10T01:24:25.930Z,0
2018-08-10T01:24:58.038Z,0
2018-08-10T01:26:49.459Z,0
2018-08-10T01:27:21.560Z,0
2018-08-10T01:27:53.662Z,0
2018-08-10T01:28:25.887Z,0
2018-08-10T01:28:57.882Z,0
2018-08-10T01:29:29.925Z,0
2018-08-10T01:30:01.994Z,0
2018-08-10T01:30:34.066Z,0
2018-08-10T01:32:25.661Z,0
2018-08-10T01:32:57.748Z,0
2018-08-10T01:33:29.849Z,0
2018-08-10T01:35:21.374Z,0
2018-08-10T01:35:53.428Z,0
2018-08-10T01:37:44.800Z,0
2018-08-10T01:38:16.905Z,0
2018-08-10T01:38:48.992Z,0
2018-08-10T01:39:21.100Z,0
2018-08-10T01:39:53.205Z,0
2018-08-10T01:40:25.285Z,0
2018-08-10T01:40:57.379Z,0
2018-08-10T01:41:29.470Z,0
2018-08-10T01:42:01.563Z,0
2018-08-10T01:42:33.654Z,0
2018-08-10T01:43:05.726Z,0
2018-08-10T01:43:37.790Z,0
2018-08-10T01:44:09.879Z,0
2018-08-10T01:44:41.982Z,0
2018-08-10T01:45:14.072Z,0
2018-08-10T01:45:46.123Z,0
2018-08-10T01:46:18.202Z,0
2018-08-10T01:46:50.291Z,0
2018-08-10T01:47:22.376Z,0
2018-08-10T01:47:54.432Z,0
2018-08-10T01:48:26.501Z,0
2018-08-10T01:48:58.598Z,0
2018-08-10T01:49:30.697Z,0
2018-08-10T01:50:02.785Z,0
2018-08-10T01:50:34.894Z,0
2018-08-10T01:51:06.985Z,0
2018-08-10T01:51:39.094Z,0
2018-08-10T01:52:11.181Z,0
2018-08-10T01:54:02.815Z,0
2018-08-10T01:54:34.920Z,0
2018-08-10T01:55:07.006Z,0
2018-08-10T01:55:39.080Z,0
2018-08-10T01:56:11.170Z,0
2018-08-10T01:56:43.245Z,0
2018-08-10T01:57:15.311Z,0
2018-08-10T01:57:47.427Z,0
2018-08-10T01:58:19.493Z,0
2018-08-10T01:58:51.553Z,0
2018-08-10T01:59:23.640Z,0
2018-08-10T01:59:55.744Z,0
2018-08-10T02:00:27.790Z,0
2018-08-10T02:00:59.897Z,0
2018-08-10T02:01:31.989Z,0
2018-08-10T02:04:42.994Z,0
2018-08-10T02:05:15.102Z,0
2018-08-10T02:07:06.740Z,0
2018-08-10T02:08:58.378Z,0
2018-08-10T02:09:30.464Z,0
2018-08-10T02:10:02.558Z,0
2018-08-10T02:10:34.652Z,0
2018-08-10T02:12:26.266Z,0
2018-08-10T02:12:58.340Z,0
2018-08-10T02:13:30.421Z,0
2018-08-10T02:14:02.530Z,0
2018-08-10T02:14:34.611Z,0
2018-08-10T02:15:06.718Z,0
2018-08-10T02:15:38.822Z,0
2018-08-10T02:16:10.920Z,0
2018-08-10T02:16:42.987Z,0
2018-08-10T02:17:15.070Z,0
2018-08-10T02:17:47.173Z,0
2018-08-10T02:18:19.239Z,0
2018-08-10T02:18:51.318Z,0
2018-08-10T02:19:23.410Z,0
2018-08-10T02:19:55.504Z,0
2018-08-10T02:20:27.560Z,0
2018-08-10T02:20:59.653Z,0
2018-08-10T02:21:31.756Z,0
2018-08-10T02:22:03.819Z,0
2018-08-10T02:23:55.494Z,0
2018-08-10T02:25:46.908Z,0
2018-08-10T02:26:18.988Z,0
2018-08-10T02:26:51.093Z,0
2018-08-10T02:27:23.166Z,0
2018-08-10T02:30:34.007Z,0
2018-08-10T02:31:06.101Z,0
2018-08-10T02:32:57.431Z,0
2018-08-10T02:33:29.528Z,0
2018-08-10T02:34:01.634Z,0
2018-08-10T02:35:53.424Z,0
2018-08-10T02:36:25.505Z,0
2018-08-10T02:36:57.603Z,0
2018-08-10T02:37:29.694Z,0
2018-08-10T02:38:01.779Z,0
2018-08-10T02:38:33.854Z,0
2018-08-10T02:39:05.938Z,0
2018-08-10T02:39:38.038Z,0
2018-08-10T02:40:10.114Z,0
2018-08-10T02:40:42.206Z,0
2018-08-10T02:41:14.303Z,0
2018-08-10T02:41:46.396Z,0
2018-08-10T02:42:18.487Z,0
2018-08-10T02:42:50.564Z,0
2018-08-10T02:43:22.666Z,0
2018-08-10T02:43:54.748Z,0
2018-08-10T02:44:26.843Z,0
2018-08-10T02:44:58.928Z,0
2018-08-10T02:45:31.029Z,0
2018-08-10T02:46:03.142Z,0
2018-08-10T02:46:35.209Z,0
2018-08-10T02:47:07.310Z,0
2018-08-10T02:47:39.401Z,0
2018-08-10T02:48:11.462Z,0
2018-08-10T02:48:43.541Z,0
2018-08-10T02:49:15.609Z,0
2018-08-10T02:51:07.167Z,0
2018-08-10T02:51:39.253Z,0
2018-08-10T02:52:11.342Z,0
2018-08-10T02:52:43.446Z,0
2018-08-10T02:53:15.546Z,0
2018-08-10T02:55:06.850Z,0
2018-08-10T02:56:58.201Z,0
2018-08-10T02:57:30.295Z,0
2018-08-10T02:58:02.397Z,0
2018-08-10T02:58:34.498Z,0
2018-08-10T02:59:06.609Z,0
2018-08-10T02:59:38.706Z,0
2018-08-10T03:00:10.802Z,0
2018-08-10T03:00:42.879Z,0
2018-08-10T03:01:14.960Z,0
2018-08-10T03:01:47.060Z,0
2018-08-10T03:02:19.145Z,0
2018-08-10T03:02:51.263Z,0
2018-08-10T03:03:23.347Z,0
2018-08-10T03:03:55.435Z,0
2018-08-10T03:04:27.521Z,0
2018-08-10T03:06:19.302Z,0
2018-08-10T03:06:51.391Z,0
2018-08-10T03:07:23.490Z,0
2018-08-10T03:07:55.563Z,0
2018-08-10T03:08:27.644Z,0
2018-08-10T03:08:59.727Z,0
2018-08-10T03:09:31.797Z,0
2018-08-10T03:10:03.878Z,0
2018-08-10T03:10:35.950Z,0
2018-08-10T03:11:08.012Z,0
2018-08-10T03:11:40.118Z,0
2018-08-10T03:12:12.189Z,0
2018-08-10T03:12:44.269Z,0
2018-08-10T03:13:16.343Z,0
2018-08-10T03:13:48.426Z,0
2018-08-10T03:14:20.514Z,0
2018-08-10T03:14:52.613Z,0
2018-08-10T03:15:24.717Z,0
2018-08-10T03:15:56.816Z,0
2018-08-10T03:19:07.532Z,0
2018-08-10T03:19:39.645Z,0
2018-08-10T03:21:31.295Z,0
2018-08-10T03:22:03.396Z,0
2018-08-10T03:22:35.465Z,0
2018-08-10T03:24:26.810Z,0
2018-08-10T03:24:58.887Z,0
2018-08-10T03:25:30.974Z,0
2018-08-10T03:26:03.053Z,0
2018-08-10T03:26:35.172Z,0
2018-08-10T03:27:07.261Z,0
2018-08-10T03:27:39.361Z,0
2018-08-10T03:28:11.445Z,0
2018-08-10T03:28:43.526Z,0
2018-08-10T03:29:15.599Z,0
2018-08-10T03:31:07.315Z,0
2018-08-10T03:31:39.365Z,0
2018-08-10T03:32:11.458Z,0
2018-08-10T03:32:43.524Z,0
2018-08-10T03:33:15.625Z,0
2018-08-10T03:33:47.718Z,0
2018-08-10T03:34:19.814Z,0
2018-08-10T03:34:51.876Z,0
2018-08-10T03:35:23.950Z,0
2018-08-10T03:35:56.069Z,0
2018-08-10T03:36:28.131Z,0
2018-08-10T03:37:00.207Z,0
2018-08-10T03:37:32.298Z,0
2018-08-10T03:38:04.332Z,0
2018-08-10T03:38:36.454Z,0
2018-08-10T03:39:08.559Z,4
2018-08-10T03:41:00.224Z,4
2018-08-10T03:41:32.274Z,4
2018-08-10T03:42:04.327Z,0
2018-08-10T03:42:36.407Z,0
2018-08-10T03:45:47.052Z,4
2018-08-10T03:46:19.098Z,4
2018-08-10T03:48:10.895Z,4
2018-08-10T03:48:42.979Z,8
2018-08-10T03:49:15.074Z,8
2018-08-10T03:49:47.229Z,8
2018-08-10T03:50:19.251Z,12
2018-08-10T03:50:51.333Z,8
2018-08-10T03:51:23.448Z,8
2018-08-10T03:51:55.526Z,12
2018-08-10T03:52:27.610Z,12
2018-08-10T03:52:59.683Z,12
2018-08-10T03:53:31.772Z,16
2018-08-10T03:54:03.883Z,12
2018-08-10T03:54:35.956Z,12
2018-08-10T03:55:08.036Z,12
2018-08-10T03:55:40.134Z,12
2018-08-10T03:56:12.254Z,12
2018-08-10T03:56:44.311Z,12
2018-08-10T03:58:35.731Z,16
2018-08-10T03:59:07.826Z,20
2018-08-10T03:59:39.919Z,20
2018-08-10T04:00:11.991Z,16
2018-08-10T04:00:44.060Z,16
2018-08-10T04:02:35.564Z,20
2018-08-10T04:03:07.664Z,20
2018-08-10T04:03:39.739Z,20
2018-08-10T04:04:11.822Z,20
2018-08-10T04:06:03.487Z,20
2018-08-10T04:06:35.558Z,20
2018-08-10T04:07:07.654Z,20
2018-08-10T04:08:59.403Z,32
2018-08-10T04:09:31.496Z,32
2018-08-10T04:10:03.534Z,32
2018-08-10T04:10:35.632Z,28
2018-08-10T04:11:07.716Z,28
2018-08-10T04:12:59.219Z,28
2018-08-10T04:13:31.316Z,28
2018-08-10T04:14:03.392Z,28
2018-08-10T04:14:35.459Z,28
2018-08-10T04:15:07.550Z,40
2018-08-10T04:15:39.655Z,44
2018-08-10T04:16:11.755Z,48
2018-08-10T04:16:43.846Z,52
2018-08-10T04:17:15.926Z,60
2018-08-10T04:17:48.015Z,72
2018-08-10T04:18:20.095Z,76
2018-08-10T04:18:52.190Z,80
2018-08-10T04:19:24.275Z,84
2018-08-10T04:19:56.367Z,92
2018-08-10T04:20:28.450Z,96
2018-08-10T04:21:00.536Z,100
2018-08-10T04:21:32.642Z,92
2018-08-10T04:22:04.738Z,92
2018-08-10T04:22:36.824Z,80
2018-08-10T04:23:08.935Z,72
2018-08-10T04:23:41.010Z,72
2018-08-10T04:24:13.089Z,84
2018-08-10T04:24:45.170Z,96
2018-08-10T04:25:17.263Z,128
2018-08-10T04:25:49.355Z,156
2018-08-10T04:27:41.077Z,220
2018-08-10T04:28:13.172Z,232
2018-08-10T04:28:45.259Z,248
2018-08-10T04:30:36.991Z,280
2018-08-10T04:31:09.084Z,276
2018-08-10T04:31:41.177Z,288
2018-08-10T04:32:13.252Z,284
2018-08-10T04:32:45.305Z,276
2018-08-10T04:33:17.408Z,280
2018-08-10T04:35:08.756Z,272
2018-08-10T04:35:40.846Z,268
2018-08-10T04:36:12.917Z,264
2018-08-10T04:36:44.992Z,264
2018-08-10T04:37:17.093Z,268
2018-08-10T04:37:52.987Z,272
2018-08-10T04:38:25.064Z,280
2018-08-10T04:38:57.138Z,280
2018-08-10T04:39:29.219Z,288
2018-08-10T04:40:01.311Z,304
2018-08-10T04:40:33.425Z,312
2018-08-10T04:41:05.514Z,308
2018-08-10T04:41:37.598Z,320
2018-08-10T04:42:09.655Z,336
2018-08-10T04:42:41.734Z,360
2018-08-10T04:43:13.813Z,356
2018-08-10T04:43:45.896Z,348
2018-08-10T04:44:17.999Z,348
2018-08-10T04:44:50.084Z,324
2018-08-10T04:45:22.152Z,316
2018-08-10T04:45:54.245Z,300
2018-08-10T04:46:26.341Z,264
2018-08-10T04:46:58.431Z,240
2018-08-10T04:47:30.521Z,232
2018-08-10T04:48:02.691Z,232
2018-08-10T04:48:34.788Z,224
2018-08-10T04:49:06.876Z,224
2018-08-10T04:49:38.972Z,220
2018-08-10T04:50:11.064Z,208
2018-08-10T04:50:43.162Z,220
2018-08-10T04:51:15.253Z,212
2018-08-10T04:51:47.337Z,208
2018-08-10T04:53:38.809Z,272
2018-08-10T04:55:30.579Z,368
2018-08-10T04:56:02.629Z,384
2018-08-10T04:56:34.716Z,376
2018-08-10T04:57:06.804Z,332
2018-08-10T04:57:38.911Z,332
2018-08-10T04:59:30.437Z,328
2018-08-10T05:00:02.526Z,332
2018-08-10T05:00:34.586Z,348
2018-08-10T05:01:06.656Z,384
2018-08-10T05:01:38.725Z,444
2018-08-10T05:02:10.891Z,480
2018-08-10T05:02:42.977Z,508
2018-08-10T05:03:15.060Z,520
2018-08-10T05:05:06.446Z,584
2018-08-10T05:05:38.506Z,628
2018-08-10T05:06:10.593Z,612
2018-08-10T05:06:42.680Z,596
2018-08-10T05:07:14.753Z,660
2018-08-10T05:07:46.838Z,668
2018-08-10T05:08:18.936Z,608
2018-08-10T05:08:51.028Z,564
2018-08-10T05:09:23.127Z,544
2018-08-10T05:09:55.356Z,544
2018-08-10T05:10:27.301Z,896
2018-08-10T05:10:59.391Z,512
2018-08-10T05:11:31.450Z,564
2018-08-10T05:12:03.532Z,476
2018-08-10T05:12:35.599Z,444
2018-08-10T05:14:27.110Z,496
2018-08-10T05:14:59.193Z,472
2018-08-10T05:16:50.861Z,612
2018-08-10T05:17:22.944Z,620
2018-08-10T05:17:55.032Z,616
2018-08-10T05:18:27.109Z,656
2018-08-10T05:18:59.170Z,712
2018-08-10T05:19:31.259Z,760
2018-08-10T05:20:03.333Z,812
2018-08-10T05:21:55.026Z,860
2018-08-10T05:22:27.112Z,872
2018-08-10T05:22:59.207Z,840
2018-08-10T05:23:31.290Z,796
2018-08-10T05:24:03.399Z,780
2018-08-10T05:25:54.901Z,876
2018-08-10T05:26:26.948Z,832
2018-08-10T05:26:59.029Z,776
2018-08-10T05:27:31.086Z,760
2018-08-10T05:28:03.158Z,788
2018-08-10T05:28:35.263Z,804
2018-08-10T05:29:07.340Z,788
2018-08-10T05:30:59.103Z,892
2018-08-10T05:31:31.174Z,896
2018-08-10T05:32:03.228Z,892
2018-08-10T05:32:35.244Z,936
2018-08-10T05:33:07.333Z,1856
2018-08-10T05:33:39.408Z,1756
2018-08-10T05:34:11.467Z,1032
2018-08-10T05:34:43.577Z,1684
2018-08-10T05:35:15.641Z,2712
2018-08-10T05:37:07.311Z,2676
2018-08-10T05:37:39.399Z,2756
2018-08-10T05:38:11.496Z,2764
2018-08-10T05:38:43.668Z,2784
2018-08-10T05:39:19.790Z,2816
2018-08-10T05:39:51.892Z,2860
2018-08-10T05:40:24.011Z,2848
2018-08-10T05:40:56.061Z,2336
2018-08-10T05:41:28.114Z,2752
2018-08-10T05:42:00.242Z,2900
2018-08-10T05:42:34.828Z,1416
2018-08-10T05:43:06.883Z,2916
2018-08-10T05:43:38.925Z,2864
2018-08-10T05:44:10.997Z,2908
2018-08-10T05:44:43.093Z,2936
2018-08-10T05:45:15.125Z,2900
2018-08-10T05:45:47.203Z,2916
2018-08-10T05:46:19.300Z,1640
2018-08-10T05:46:51.399Z,3012
2018-08-10T05:47:23.397Z,2916
2018-08-10T05:47:55.538Z,2120
2018-08-10T05:48:27.526Z,3004
2018-08-10T05:48:59.545Z,2928
2018-08-10T05:49:31.614Z,3024
2018-08-10T05:50:03.722Z,3036
2018-08-10T05:50:35.757Z,3048
2018-08-10T05:51:07.836Z,2344
2018-08-10T05:51:39.858Z,3116
2018-08-10T05:52:11.878Z,2912
2018-08-10T05:52:43.936Z,3152
2018-08-10T05:53:15.985Z,3140
2018-08-10T05:53:47.989Z,3092
2018-08-10T05:54:20.047Z,2384
2018-08-10T05:54:53.041Z,2420
2018-08-10T05:55:25.093Z,3200
2018-08-10T05:55:57.137Z,3144
2018-08-10T05:56:29.156Z,1696
2018-08-10T05:57:01.237Z,3172
2018-08-10T05:57:33.737Z,3184
2018-08-10T05:58:05.973Z,3204
2018-08-10T05:58:37.967Z,3192
2018-08-10T05:59:10.070Z,3200
2018-08-10T05:59:42.159Z,3204
2018-08-10T06:00:14.209Z,3216
2018-08-10T06:00:46.309Z,3224
2018-08-10T06:01:18.317Z,3244
2018-08-10T06:01:50.368Z,3204
2018-08-10T06:02:22.404Z,3276
2018-08-10T06:02:54.468Z,3276
2018-08-10T06:03:26.629Z,3276
2018-08-10T06:03:59.125Z,3276
2018-08-10T06:04:31.022Z,3292
2018-08-10T06:05:03.090Z,3304
2018-08-10T06:05:35.176Z,3340
2018-08-10T06:06:07.273Z,3292
2018-08-10T06:06:39.319Z,3332
2018-08-10T06:07:11.367Z,3320
2018-08-10T06:07:43.448Z,3372
2018-08-10T06:08:15.464Z,3388
2018-08-10T06:08:47.486Z,3408
2018-08-10T06:09:19.656Z,3404
2018-08-10T06:09:51.754Z,3424
2018-08-10T06:10:23.833Z,3460
2018-08-10T06:10:55.942Z,3484
2018-08-10T06:11:28.001Z,3492
2018-08-10T06:12:00.173Z,3692
2018-08-10T06:12:32.323Z,3804
2018-08-10T06:13:04.552Z,3684
2018-08-10T06:13:36.555Z,3464
2018-08-10T06:14:08.624Z,2340
2018-08-10T06:14:40.695Z,2780
2018-08-10T06:15:12.742Z,3440
2018-08-10T06:15:44.767Z,2968
2018-08-10T06:16:16.875Z,2008
2018-08-10T06:16:48.935Z,3120
2018-08-10T06:17:20.977Z,3612
2018-08-10T06:17:53.011Z,1592
2018-08-10T06:18:25.057Z,3668
2018-08-10T06:18:57.093Z,3664
2018-08-10T06:19:29.270Z,3680
2018-08-10T06:20:01.586Z,3704
2018-08-10T06:20:33.789Z,3712
2018-08-10T06:21:05.835Z,3752
2018-08-10T06:21:38.051Z,3764
2018-08-10T06:22:10.057Z,3836
2018-08-10T06:22:42.108Z,3780
2018-08-10T06:23:14.138Z,3852
2018-08-10T06:23:46.284Z,3860
2018-08-10T06:24:18.352Z,3852
2018-08-10T06:24:50.435Z,2936
2018-08-10T06:25:22.465Z,3648
2018-08-10T06:25:54.520Z,3916
2018-08-10T06:26:26.571Z,1992
2018-08-10T06:26:58.572Z,3928
2018-08-10T06:27:30.654Z,3912
2018-08-10T06:28:02.708Z,3928
2018-08-10T06:28:34.851Z,3980
2018-08-10T06:29:07.859Z,4020
2018-08-10T06:29:39.863Z,4056
2018-08-10T06:30:11.968Z,3956
2018-08-10T06:30:44.653Z,4108
2018-08-10T06:31:16.749Z,4160
2018-08-10T06:31:48.790Z,4188
2018-08-10T06:32:20.831Z,4236
2018-08-10T06:32:52.901Z,3984
2018-08-10T06:33:25.041Z,4212
2018-08-10T06:33:57.165Z,4172
2018-08-10T06:34:29.134Z,4248
2018-08-10T06:35:01.187Z,4028
2018-08-10T06:35:33.253Z,4316
2018-08-10T06:36:05.336Z,4320
2018-08-10T06:36:37.373Z,4252
2018-08-10T06:37:09.449Z,4288
2018-08-10T06:37:41.671Z,4264
2018-08-10T06:38:13.745Z,4272
2018-08-10T06:38:45.813Z,4280
2018-08-10T06:39:17.824Z,4312
2018-08-10T06:39:50.001Z,4328
2018-08-10T06:40:22.012Z,4328
2018-08-10T06:40:54.068Z,4280
2018-08-10T06:41:26.223Z,4352
2018-08-10T06:41:58.237Z,4404
2018-08-10T06:42:30.299Z,4368
2018-08-10T06:43:02.298Z,4400
2018-08-10T06:43:34.364Z,4412
2018-08-10T06:44:06.397Z,4416
2018-08-10T06:44:38.425Z,4432
2018-08-10T06:45:10.525Z,4460
2018-08-10T06:45:42.649Z,4460
2018-08-10T06:46:14.719Z,4504
2018-08-10T06:46:46.812Z,4500
2018-08-10T06:47:18.885Z,4540
2018-08-10T06:47:50.931Z,4528
2018-08-10T06:48:23.072Z,4684
2018-08-10T06:48:55.119Z,4300
2018-08-10T06:49:27.172Z,4636
2018-08-10T06:49:59.853Z,4688
2018-08-10T06:50:31.884Z,4732
2018-08-10T06:51:04.000Z,4832
2018-08-10T06:51:36.066Z,4976
2018-08-10T06:52:08.224Z,5072
2018-08-10T06:52:40.434Z,5172
2018-08-10T06:53:12.626Z,5264
2018-08-10T06:53:44.656Z,5256
2018-08-10T06:54:16.683Z,5280
2018-08-10T06:54:48.750Z,5188
2018-08-10T06:55:20.832Z,5068
2018-08-10T06:55:53.564Z,5096
2018-08-10T06:56:25.517Z,5108
2018-08-10T06:56:57.614Z,5056
2018-08-10T06:57:29.648Z,5012
2018-08-10T06:58:01.746Z,4948
2018-08-10T06:58:33.795Z,4992
2018-08-10T06:59:05.849Z,5024
2018-08-10T06:59:37.906Z,5024
2018-08-10T07:00:09.996Z,4988
2018-08-10T07:00:42.353Z,5048
2018-08-10T07:01:14.346Z,5028
2018-08-10T07:01:46.383Z,5020
2018-08-10T07:02:18.433Z,5028
2018-08-10T07:02:50.498Z,5012
2018-08-10T07:03:22.556Z,5008
2018-08-10T07:03:54.789Z,4948
2018-08-10T07:04:26.939Z,4968
2018-08-10T07:04:58.991Z,5176
2018-08-10T07:05:31.062Z,5132
2018-08-10T07:06:03.161Z,5140
2018-08-10T07:06:35.204Z,5088
2018-08-10T07:07:07.877Z,5112
2018-08-10T07:07:40.158Z,5116
2018-08-10T07:08:12.189Z,5104
2018-08-10T07:08:44.391Z,5148
2018-08-10T07:09:16.512Z,5132
2018-08-10T07:09:48.537Z,5140
2018-08-10T07:10:20.595Z,5292
2018-08-10T07:10:52.701Z,3992
2018-08-10T07:11:24.773Z,3260
2018-08-10T07:11:56.876Z,5440
2018-08-10T07:12:28.892Z,5392
2018-08-10T07:13:00.989Z,5372
2018-08-10T07:13:33.170Z,5364
2018-08-10T07:14:05.057Z,5408
2018-08-10T07:14:37.083Z,5464
2018-08-10T07:15:09.134Z,5508
2018-08-10T07:15:41.277Z,5392
2018-08-10T07:16:13.302Z,2024
2018-08-10T07:16:45.442Z,5512
2018-08-10T07:17:17.508Z,5404
2018-08-10T07:17:49.607Z,5428
2018-08-10T07:18:21.699Z,5468
2018-08-10T07:18:53.764Z,5528
2018-08-10T07:19:25.816Z,5436
2018-08-10T07:19:57.849Z,4620
2018-08-10T07:20:29.902Z,5448
2018-08-10T07:21:01.968Z,5412
2018-08-10T07:21:34.812Z,4220
2018-08-10T07:22:06.860Z,5472
2018-08-10T07:22:38.899Z,3240
2018-08-10T07:23:10.944Z,2680
2018-08-10T07:23:43.084Z,5268
2018-08-10T07:24:15.145Z,5344
2018-08-10T07:24:47.225Z,5260
2018-08-10T07:25:19.262Z,1448
2018-08-10T07:25:51.289Z,1456
2018-08-10T07:26:23.318Z,5348
2018-08-10T07:26:55.369Z,5228
2018-08-10T07:27:27.432Z,5240
2018-08-10T07:27:59.494Z,5212
2018-08-10T07:28:31.508Z,5256
2018-08-10T07:29:03.593Z,5280
2018-08-10T07:29:35.650Z,5244
2018-08-10T07:30:07.742Z,5224
2018-08-10T07:30:39.738Z,5176
2018-08-10T07:31:11.782Z,5272
2018-08-10T07:31:43.780Z,5328
2018-08-10T07:32:15.844Z,5340
2018-08-10T07:32:47.898Z,5392
2018-08-10T07:33:19.992Z,5412
2018-08-10T07:33:52.016Z,5432
2018-08-10T07:34:24.047Z,5548
2018-08-10T07:34:56.146Z,5620
2018-08-10T07:35:28.294Z,5584
2018-08-10T07:36:00.343Z,5560
2018-08-10T07:36:32.390Z,5536
2018-08-10T07:37:04.434Z,5548
2018-08-10T07:37:36.578Z,5468
2018-08-10T07:38:08.674Z,5448
2018-08-10T07:38:40.803Z,5396
2018-08-10T07:39:12.851Z,5400
2018-08-10T07:39:44.924Z,5472
2018-08-10T07:40:16.949Z,5536
2018-08-10T07:40:49.025Z,5536
2018-08-10T07:41:21.184Z,5588
2018-08-10T07:41:53.441Z,5648
2018-08-10T07:42:25.496Z,5124
2018-08-10T07:42:57.540Z,5560
2018-08-10T07:43:29.562Z,3104
2018-08-10T07:44:01.659Z,5828
2018-08-10T07:44:33.791Z,5684
2018-08-10T07:45:05.829Z,5616
2018-08-10T07:45:37.918Z,5588
2018-08-10T07:46:10.008Z,5640
2018-08-10T07:46:42.026Z,5620
2018-08-10T07:47:14.070Z,5668
2018-08-10T07:47:46.120Z,5680
2018-08-10T07:48:18.267Z,5556
2018-08-10T07:48:50.384Z,5584
2018-08-10T07:49:22.455Z,5644
2018-08-10T07:49:55.231Z,5676
2018-08-10T07:50:27.584Z,5760
2018-08-10T07:50:59.661Z,2240
2018-08-10T07:51:31.731Z,6048
2018-08-10T07:52:03.881Z,6184
2018-08-10T07:52:35.940Z,6288
2018-08-10T07:53:08.025Z,6360
2018-08-10T07:53:40.083Z,6272
2018-08-10T07:54:12.135Z,6060
2018-08-10T07:54:44.163Z,5876
2018-08-10T07:55:17.099Z,5016
2018-08-10T07:55:49.280Z,6112
2018-08-10T07:56:21.311Z,6100
2018-08-10T07:56:53.337Z,6100
2018-08-10T07:57:25.352Z,6028
2018-08-10T07:57:57.482Z,5872
2018-08-10T07:58:29.654Z,5832
2018-08-10T07:59:01.866Z,5772
2018-08-10T07:59:33.994Z,5748
2018-08-10T08:00:06.047Z,5680
2018-08-10T08:00:38.102Z,5608
2018-08-10T08:01:10.097Z,5564
2018-08-10T08:01:42.165Z,4892
2018-08-10T08:02:14.231Z,6360
2018-08-10T08:02:46.376Z,6336
2018-08-10T08:03:18.819Z,6504
2018-08-10T08:03:50.745Z,6600
2018-08-10T08:04:22.809Z,6592
2018-08-10T08:04:54.849Z,6512
2018-08-10T08:05:26.908Z,6500
2018-08-10T08:05:59.025Z,6612
2018-08-10T08:06:31.110Z,6732
2018-08-10T08:07:03.308Z,6788
2018-08-10T08:07:35.351Z,6744
2018-08-10T08:08:07.374Z,6784
2018-08-10T08:08:39.703Z,6912
2018-08-10T08:09:11.762Z,6872
2018-08-10T08:09:43.825Z,6860
2018-08-10T08:10:15.965Z,6680
2018-08-10T08:10:48.141Z,6568
2018-08-10T08:11:20.263Z,6732
2018-08-10T08:11:52.278Z,6820
2018-08-10T08:12:24.310Z,6708
2018-08-10T08:12:56.348Z,6580
2018-08-10T08:13:28.399Z,6628
2018-08-10T08:14:00.435Z,6760
2018-08-10T08:14:32.493Z,6836
2018-08-10T08:15:04.594Z,6976
2018-08-10T08:15:36.604Z,6912
2018-08-10T08:16:08.644Z,6832
2018-08-10T08:16:40.688Z,6920
2018-08-10T08:17:12.754Z,6856
2018-08-10T08:17:44.796Z,6824
2018-08-10T08:18:16.844Z,6880
2018-08-10T08:18:48.876Z,6936
2018-08-10T08:19:21.164Z,6964
2018-08-10T08:19:53.269Z,6956
2018-08-10T08:20:25.256Z,6804
2018-08-10T08:20:57.270Z,6728
2018-08-10T08:21:29.305Z,6500
2018-08-10T08:22:01.298Z,6344
2018-08-10T08:22:33.355Z,6296
2018-08-10T08:23:05.398Z,2744
2018-08-10T08:23:37.456Z,5468
2018-08-10T08:24:09.483Z,4352
2018-08-10T08:24:41.556Z,3416
2018-08-10T08:25:13.694Z,2184
2018-08-10T08:25:45.740Z,6196
2018-08-10T08:26:17.730Z,6248
2018-08-10T08:26:49.804Z,3256
2018-08-10T08:27:21.913Z,5788
2018-08-10T08:27:53.964Z,6128
2018-08-10T08:28:25.985Z,6008
2018-08-10T08:28:58.028Z,5928
2018-08-10T08:29:30.069Z,5888
2018-08-10T08:30:02.092Z,5832
2018-08-10T08:30:34.158Z,5848
2018-08-10T08:31:06.286Z,5732
2018-08-10T08:31:38.520Z,5904
2018-08-10T08:32:10.624Z,5876
2018-08-10T08:32:42.895Z,5208
2018-08-10T08:33:15.010Z,5656
2018-08-10T08:33:47.060Z,5864
2018-08-10T08:34:19.870Z,5852
2018-08-10T08:34:52.435Z,5808
2018-08-10T08:35:24.349Z,5788
2018-08-10T08:35:56.376Z,5544
2018-08-10T08:36:28.418Z,5796
2018-08-10T08:37:00.679Z,5828
2018-08-10T08:37:32.691Z,4408
2018-08-10T08:38:04.718Z,5884
2018-08-10T08:38:37.538Z,2540
2018-08-10T08:39:09.582Z,6004
2018-08-10T08:39:41.642Z,5928
2018-08-10T08:40:13.677Z,6012
2018-08-10T08:40:45.767Z,6100
2018-08-10T08:41:17.816Z,6104
2018-08-10T08:41:49.884Z,6184
2018-08-10T08:42:21.952Z,6168
2018-08-10T08:42:53.997Z,6100
2018-08-10T08:43:26.633Z,6092
2018-08-10T08:43:58.731Z,6112
2018-08-10T08:44:30.919Z,6028
2018-08-10T08:45:02.980Z,5988
2018-08-10T08:45:35.209Z,6024
2018-08-10T08:46:07.953Z,5928
2018-08-10T08:46:40.331Z,4784
2018-08-10T08:47:12.077Z,5944
2018-08-10T08:47:44.167Z,5932
2018-08-10T08:48:16.218Z,5812